Time;durP1;ratioP1;P1;durP2;ratioP2;P2;SDS_P1;SDS_P2;PMS_P1;PMS_P2;Temp;Humidity;BMP_temperature;BMP_pressure;BME280_temperature;BME280_humidity;BME280_pressure;Samples;Min_cycle;Max_cycle;Signal;HPM_P1;HPM_P2
2023/03/05 00:00:24;;;;;;;36.23;19.83;;;;;;;;;;4993675;28;20476;-71
2023/03/05 00:02:50;;;;;;;38.97;20.37;;;;;;;;;;4993908;28;20507;-71
2023/03/05 00:05:16;;;;;;;43.23;21.43;;;;;;;;;;4993577;28;20425;-71
2023/03/05 00:07:42;;;;;;;48.30;21.53;;;;;;;;;;4994436;28;20504;-71
2023/03/05 00:10:08;;;;;;;45.30;20.80;;;;;;;;;;4997033;28;20893;-71
2023/03/05 00:12:34;;;;;;;42.37;22.73;;;;;;;;;;4996972;28;20945;-71
2023/03/05 00:15:00;;;;;;;39.77;19.37;;;;;;;;;;4997224;28;20449;-71
2023/03/05 00:17:26;;;;;;;43.63;20.83;;;;;;;;;;4996782;28;20425;-71
2023/03/05 00:19:52;;;;;;;40.50;19.20;;;;;;;;;;4996806;28;20779;-71
2023/03/05 00:22:18;;;;;;;43.60;20.40;;;;;;;;;;4997361;28;20926;-71
2023/03/05 00:24:44;;;;;;;39.93;19.60;;;;;;;;;;4996987;28;20413;-71
2023/03/05 00:27:10;;;;;;;37.33;18.23;;;;;;;;;;4996905;28;20999;-71
2023/03/05 00:29:36;;;;;;;41.00;18.90;;;;;;;;;;4996653;28;20931;-71
2023/03/05 00:32:02;;;;;;;41.93;19.07;;;;;;;;;;4996647;28;20424;-71
2023/03/05 00:34:28;;;;;;;31.13;16.53;;;;;;;;;;4996500;28;20423;-72
2023/03/05 00:36:54;;;;;;;39.70;18.73;;;;;;;;;;4996691;28;20432;-71
2023/03/05 00:39:21;;;;;;;35.63;18.70;;;;;;;;;;4996442;28;20417;-71
2023/03/05 00:41:47;;;;;;;37.63;18.83;;;;;;;;;;4996667;28;20460;-71
2023/03/05 00:44:13;;;;;;;36.43;20.10;;;;;;;;;;4996292;28;20960;-71
2023/03/05 00:46:39;;;;;;;36.53;18.83;;;;;;;;;;4996470;28;20492;-71
2023/03/05 00:49:05;;;;;;;33.23;18.03;;;;;;;;;;4996602;28;20426;-71
2023/03/05 00:51:31;;;;;;;43.60;19.20;;;;;;;;;;4996580;28;20418;-71
2023/03/05 00:53:57;;;;;;;37.03;18.57;;;;;;;;;;4994842;28;20437;-71
2023/03/05 00:56:23;;;;;;;42.30;20.07;;;;;;;;;;4996355;28;20436;-71
2023/03/05 00:58:49;;;;;;;33.10;18.20;;;;;;;;;;4996035;28;20801;-71
2023/03/05 01:01:16;;;;;;;37.07;18.50;;;;;;;;;;4995964;28;20929;-71
2023/03/05 01:03:42;;;;;;;39.20;19.17;;;;;;;;;;4996004;28;20909;-71
2023/03/05 01:06:10;;;;;;;42.40;18.80;;;;;;;;;;4995996;28;20563;-71
2023/03/05 01:08:36;;;;;;;32.67;17.67;;;;;;;;;;4996116;28;20436;-71
2023/03/05 01:11:02;;;;;;;43.33;20.73;;;;;;;;;;4996212;28;20512;-71
2023/03/05 01:13:28;;;;;;;39.77;19.87;;;;;;;;;;4996183;28;20456;-71
2023/03/05 01:15:54;;;;;;;34.03;17.50;;;;;;;;;;4995777;28;20429;-72
2023/03/05 01:18:20;;;;;;;32.33;17.67;;;;;;;;;;4995328;28;20421;-71
2023/03/05 01:20:46;;;;;;;38.80;19.63;;;;;;;;;;4996304;28;20512;-71
2023/03/05 01:23:12;;;;;;;42.00;21.40;;;;;;;;;;4995735;28;20483;-71
2023/03/05 01:25:38;;;;;;;40.00;20.10;;;;;;;;;;4995738;28;20409;-71
2023/03/05 01:28:04;;;;;;;52.37;23.30;;;;;;;;;;4995526;28;20567;-71
2023/03/05 01:30:30;;;;;;;32.90;18.83;;;;;;;;;;4995534;28;20420;-71
2023/03/05 01:32:56;;;;;;;38.80;18.30;;;;;;;;;;4995559;28;20505;-72
2023/03/05 01:35:23;;;;;;;41.60;24.20;;;;;;;;;;4995191;28;20409;-71
2023/03/05 01:37:50;;;;;;;41.40;19.43;;;;;;;;;;4995675;28;20189;-71
2023/03/05 01:40:18;;;;;;;37.37;19.30;;;;;;;;;;4995624;28;20417;-71
2023/03/05 01:42:45;;;;;;;43.90;19.77;;;;;;;;;;4995347;28;20504;-71
2023/03/05 01:45:13;;;;;;;34.00;17.17;;;;;;;;;;4995351;28;20417;-71
2023/03/05 01:47:39;;;;;;;39.30;18.70;;;;;;;;;;4995697;28;20476;-71
2023/03/05 01:50:08;;;;;;;37.10;19.70;;;;;;;;;;4995281;28;20420;-71
2023/03/05 01:52:35;;;;;;;32.83;19.30;;;;;;;;;;4995147;28;20429;-72
2023/03/05 01:55:04;;;;;;;31.90;17.47;;;;;;;;;;4995084;28;20445;-71
2023/03/05 01:57:35;;;;;;;36.97;17.47;;;;;;;;;;4995366;28;20429;-71
2023/03/05 02:00:05;;;;;;;38.70;18.20;;;;;;;;;;4995238;28;20843;-71
2023/03/05 02:02:31;;;;;;;41.43;19.83;;;;;;;;;;4993673;28;20853;-71
2023/03/05 02:05:02;;;;;;;30.93;17.60;;;;;;;;;;4995495;28;20416;-71
2023/03/05 02:07:29;;;;;;;37.63;17.50;;;;;;;;;;4994684;28;20461;-71
2023/03/05 02:09:55;;;;;;;36.23;18.00;;;;;;;;;;4994779;28;20409;-71
2023/03/05 02:12:22;;;;;;;33.70;18.07;;;;;;;;;;4994762;28;20471;-71
2023/03/05 02:14:49;;;;;;;36.27;18.93;;;;;;;;;;4994895;28;20409;-71
2023/03/05 02:17:15;;;;;;;38.70;17.70;;;;;;;;;;4994772;28;20444;-71
2023/03/05 02:19:48;;;;;;;31.40;17.67;;;;;;;;;;4995163;28;20917;-71
2023/03/05 02:22:15;;;;;;;43.73;19.13;;;;;;;;;;4995147;28;20429;-71
2023/03/05 02:24:41;;;;;;;30.90;16.93;;;;;;;;;;4994534;28;20413;-71
2023/03/05 02:27:07;;;;;;;39.60;19.37;;;;;;;;;;4994999;28;20826;-71
2023/03/05 02:29:34;;;;;;;36.37;18.73;;;;;;;;;;4994469;28;20456;-71
2023/03/05 02:32:01;;;;;;;43.20;18.20;;;;;;;;;;4993673;28;20422;-71
2023/03/05 02:34:27;;;;;;;37.63;20.47;;;;;;;;;;4994332;28;20439;-71
2023/03/05 02:36:54;;;;;;;32.30;18.97;;;;;;;;;;4994696;28;20429;-71
2023/03/05 02:39:20;;;;;;;32.50;17.47;;;;;;;;;;4994481;28;20417;-71
2023/03/05 02:41:46;;;;;;;34.03;17.90;;;;;;;;;;4994224;28;20499;-71
2023/03/05 02:44:12;;;;;;;36.07;17.53;;;;;;;;;;4994125;28;20492;-71
2023/03/05 02:46:38;;;;;;;32.57;17.13;;;;;;;;;;4994303;28;20519;-71
2023/03/05 02:49:05;;;;;;;34.90;16.13;;;;;;;;;;4993921;28;20453;-71
2023/03/05 02:51:31;;;;;;;42.33;19.83;;;;;;;;;;4994299;28;20501;-71
2023/03/05 02:53:57;;;;;;;34.43;17.10;;;;;;;;;;4994636;28;20880;-71
2023/03/05 02:56:23;;;;;;;38.00;17.90;;;;;;;;;;4994020;28;20413;-71
2023/03/05 02:58:49;;;;;;;32.40;17.40;;;;;;;;;;4992681;28;20437;-71
2023/03/05 03:01:15;;;;;;;38.33;18.40;;;;;;;;;;4994155;28;20504;-71
2023/03/05 03:03:41;;;;;;;36.80;19.10;;;;;;;;;;4994201;28;20413;-71
2023/03/05 03:06:07;;;;;;;37.47;19.10;;;;;;;;;;4993831;28;20897;-71
2023/03/05 03:08:33;;;;;;;38.53;19.17;;;;;;;;;;4993860;28;20547;-71
2023/03/05 03:11:09;;;;;;;37.50;17.50;;;;;;;;;;4993911;28;20417;-71
2023/03/05 03:13:35;;;;;;;39.27;19.67;;;;;;;;;;4993798;28;20482;-71
2023/03/05 03:16:02;;;;;;;37.30;18.20;;;;;;;;;;4993723;28;20508;-71
2023/03/05 03:18:28;;;;;;;32.17;17.87;;;;;;;;;;4993773;28;20451;-71
2023/03/05 03:20:54;;;;;;;36.27;17.60;;;;;;;;;;4993808;28;20417;-71
2023/03/05 03:23:20;;;;;;;36.53;19.10;;;;;;;;;;4993724;28;20452;-71
2023/03/05 03:25:46;;;;;;;33.57;18.57;;;;;;;;;;4994314;28;20892;-71
2023/03/05 03:28:13;;;;;;;32.00;17.27;;;;;;;;;;4993584;28;20480;-71
2023/03/05 03:30:39;;;;;;;34.00;17.07;;;;;;;;;;4993692;28;20413;-71
2023/03/05 03:33:05;;;;;;;39.27;18.43;;;;;;;;;;4993907;28;20464;-71
2023/03/05 03:35:31;;;;;;;34.00;18.17;;;;;;;;;;4993652;28;20529;-71
2023/03/05 03:37:57;;;;;;;34.83;17.10;;;;;;;;;;4993561;28;20413;-71
2023/03/05 03:40:23;;;;;;;33.30;18.27;;;;;;;;;;4993873;28;20422;-71
2023/03/05 03:42:50;;;;;;;34.50;17.00;;;;;;;;;;4994614;28;20468;-72
2023/03/05 03:45:16;;;;;;;31.97;16.30;;;;;;;;;;4997538;28;20475;-71
2023/03/05 03:47:42;;;;;;;39.70;18.03;;;;;;;;;;4997659;28;20508;-72
2023/03/05 03:50:09;;;;;;;35.33;16.87;;;;;;;;;;4997648;28;20412;-71
2023/03/05 03:52:35;;;;;;;35.03;17.27;;;;;;;;;;4997696;28;20425;-71
2023/03/05 03:55:00;;;;;;;38.40;19.67;;;;;;;;;;4997922;28;20416;-72
2023/03/05 03:57:32;;;;;;;34.80;19.63;;;;;;;;;;4997554;28;20508;-71
2023/03/05 03:59:58;;;;;;;37.30;18.93;;;;;;;;;;4997213;28;20416;-71
2023/03/05 04:02:24;;;;;;;36.87;17.17;;;;;;;;;;4997428;28;20433;-71
2023/03/05 04:04:50;;;;;;;36.40;18.27;;;;;;;;;;4997134;28;20971;-71
2023/03/05 04:07:16;;;;;;;38.33;20.00;;;;;;;;;;4997053;28;20557;-72
2023/03/05 04:09:42;;;;;;;34.80;19.77;;;;;;;;;;4997552;28;20479;-71
2023/03/05 04:12:08;;;;;;;34.93;17.10;;;;;;;;;;4996973;28;20431;-72
2023/03/05 04:14:37;;;;;;;30.20;18.13;;;;;;;;;;4996968;28;20417;-72
2023/03/05 04:17:03;;;;;;;37.43;18.20;;;;;;;;;;4996912;28;20424;-71
2023/03/05 04:19:29;;;;;;;31.17;16.33;;;;;;;;;;4996872;28;20421;-71
2023/03/05 04:21:55;;;;;;;36.50;17.37;;;;;;;;;;4997292;28;20425;-72
2023/03/05 04:24:21;;;;;;;33.73;18.17;;;;;;;;;;4997006;28;20421;-71
2023/03/05 04:26:47;;;;;;;35.20;16.43;;;;;;;;;;4996934;28;20460;-71
2023/03/05 04:29:13;;;;;;;33.30;16.57;;;;;;;;;;4997050;28;20425;-71
2023/03/05 04:31:39;;;;;;;36.47;18.60;;;;;;;;;;4996863;28;20448;-71
2023/03/05 04:34:05;;;;;;;34.80;18.30;;;;;;;;;;4996843;28;20480;-71
2023/03/05 04:36:31;;;;;;;38.33;17.50;;;;;;;;;;4996858;28;20417;-71
2023/03/05 04:38:57;;;;;;;33.20;18.37;;;;;;;;;;4996513;28;20533;-71
2023/03/05 04:41:23;;;;;;;37.33;18.70;;;;;;;;;;4996755;28;20424;-71
2023/03/05 04:43:49;;;;;;;30.73;17.23;;;;;;;;;;4996235;28;20476;-71
2023/03/05 04:46:14;;;;;;;40.10;17.83;;;;;;;;;;4996844;28;20413;-71
2023/03/05 04:48:40;;;;;;;37.00;18.77;;;;;;;;;;4996295;28;20473;-71
2023/03/05 04:51:06;;;;;;;41.13;17.90;;;;;;;;;;4996407;28;20487;-71
2023/03/05 04:53:32;;;;;;;37.20;17.20;;;;;;;;;;4995839;28;20475;-71
2023/03/05 04:56:00;;;;;;;34.10;16.57;;;;;;;;;;4996243;28;20418;-71
2023/03/05 04:58:26;;;;;;;34.43;17.70;;;;;;;;;;4996107;28;20417;-71
2023/03/05 05:00:52;;;;;;;37.23;17.17;;;;;;;;;;4995594;28;20425;-71
2023/03/05 05:03:18;;;;;;;29.10;17.00;;;;;;;;;;4996226;28;20433;-71
2023/03/05 05:05:44;;;;;;;33.07;17.17;;;;;;;;;;4996066;28;20491;-71
2023/03/05 05:08:10;;;;;;;33.20;17.33;;;;;;;;;;4995848;28;20522;-71
2023/03/05 05:10:40;;;;;;;43.67;19.17;;;;;;;;;;4996004;28;20413;-71
2023/03/05 05:13:06;;;;;;;34.60;17.30;;;;;;;;;;4996648;28;20464;-71
2023/03/05 05:15:32;;;;;;;40.47;17.90;;;;;;;;;;4996159;28;20420;-71
2023/03/05 05:17:58;;;;;;;34.37;18.83;;;;;;;;;;4996061;28;20787;-72
2023/03/05 05:20:24;;;;;;;34.50;17.87;;;;;;;;;;4995759;28;20421;-71
2023/03/05 05:22:50;;;;;;;42.87;19.17;;;;;;;;;;4995971;28;20520;-71
2023/03/05 05:25:16;;;;;;;35.63;18.30;;;;;;;;;;4995981;28;20451;-71
2023/03/05 05:27:42;;;;;;;34.03;17.50;;;;;;;;;;4996073;28;20956;-71
2023/03/05 05:30:08;;;;;;;42.70;19.47;;;;;;;;;;4995564;28;20417;-71
2023/03/05 05:32:34;;;;;;;38.13;17.20;;;;;;;;;;4995767;28;20429;-71
2023/03/05 05:35:00;;;;;;;42.90;18.90;;;;;;;;;;4995468;28;20439;-71
2023/03/05 05:37:26;;;;;;;36.20;18.57;;;;;;;;;;4995720;28;20440;-71
2023/03/05 05:39:52;;;;;;;36.73;18.33;;;;;;;;;;4995418;28;20832;-71
2023/03/05 05:42:19;;;;;;;34.57;18.57;;;;;;;;;;4995117;28;20477;-71
2023/03/05 05:44:46;;;;;;;34.40;17.13;;;;;;;;;;4996110;28;20414;-71
2023/03/05 05:47:12;;;;;;;36.07;18.30;;;;;;;;;;4995124;28;20480;-72
2023/03/05 05:49:38;;;;;;;39.23;19.47;;;;;;;;;;4995471;28;20475;-71
2023/03/05 05:52:04;;;;;;;46.30;18.67;;;;;;;;;;4995506;28;20951;-71
2023/03/05 05:54:30;;;;;;;38.37;19.00;;;;;;;;;;4995391;28;20417;-71
2023/03/05 05:56:56;;;;;;;42.43;19.07;;;;;;;;;;4995078;28;20770;-71
2023/03/05 05:59:22;;;;;;;34.70;18.13;;;;;;;;;;4995358;28;20898;-71
2023/03/05 06:01:48;;;;;;;34.70;17.67;;;;;;;;;;4993663;28;20917;-71
2023/03/05 06:04:13;;;;;;;35.37;18.03;;;;;;;;;;4995470;28;20484;-71
2023/03/05 06:06:39;;;;;;;40.63;17.70;;;;;;;;;;4994398;28;20936;-71
2023/03/05 06:09:05;;;;;;;37.70;17.47;;;;;;;;;;4994701;28;20947;-71
2023/03/05 06:11:32;;;;;;;42.53;17.23;;;;;;;;;;4995146;28;20421;-71
2023/03/05 06:14:01;;;;;;;42.97;19.60;;;;;;;;;;4995075;28;20417;-71
2023/03/05 06:16:27;;;;;;;36.07;16.50;;;;;;;;;;4994606;28;20759;-71
2023/03/05 06:18:53;;;;;;;36.13;17.57;;;;;;;;;;4994946;28;20468;-71
2023/03/05 06:21:20;;;;;;;31.87;18.03;;;;;;;;;;4994649;28;20412;-71
2023/03/05 06:23:46;;;;;;;42.10;20.03;;;;;;;;;;4994946;28;20917;-71
2023/03/05 06:26:13;;;;;;;32.57;17.40;;;;;;;;;;4994701;28;20413;-71
2023/03/05 06:28:39;;;;;;;41.03;20.50;;;;;;;;;;4994253;28;20472;-71
2023/03/05 06:31:07;;;;;;;33.33;17.57;;;;;;;;;;4994348;28;20417;-71
2023/03/05 06:33:33;;;;;;;35.90;16.60;;;;;;;;;;4994375;28;20432;-71
2023/03/05 06:35:59;;;;;;;32.30;15.07;;;;;;;;;;4994630;28;20417;-71
2023/03/05 06:38:25;;;;;;;36.80;19.10;;;;;;;;;;4994274;28;20425;-71
2023/03/05 06:40:51;;;;;;;39.20;19.20;;;;;;;;;;4994224;28;20417;-71
2023/03/05 06:43:17;;;;;;;36.20;18.80;;;;;;;;;;4994082;28;20569;-71
2023/03/05 06:45:43;;;;;;;36.60;16.23;;;;;;;;;;4994213;28;20467;-71
2023/03/05 06:48:10;;;;;;;42.90;20.07;;;;;;;;;;4994348;28;20559;-71
2023/03/05 06:50:37;;;;;;;38.07;16.47;;;;;;;;;;4994617;28;20409;-71
2023/03/05 06:53:03;;;;;;;41.90;16.93;;;;;;;;;;4994086;28;20434;-71
2023/03/05 06:55:29;;;;;;;39.57;18.33;;;;;;;;;;4994117;28;20781;-71
2023/03/05 06:57:55;;;;;;;41.10;19.20;;;;;;;;;;4993717;28;20413;-72
2023/03/05 07:00:21;;;;;;;35.13;17.70;;;;;;;;;;4994098;28;20436;-71
2023/03/05 07:02:47;;;;;;;37.23;15.83;;;;;;;;;;4994526;28;20452;-71
2023/03/05 07:05:13;;;;;;;44.67;18.50;;;;;;;;;;4993946;28;20456;-71
2023/03/05 07:07:39;;;;;;;33.60;16.67;;;;;;;;;;4993918;28;20833;-71
2023/03/05 07:10:06;;;;;;;38.90;18.27;;;;;;;;;;4994162;28;20413;-71
2023/03/05 07:12:32;;;;;;;30.70;15.90;;;;;;;;;;4993887;28;20426;-71
2023/03/05 07:14:59;;;;;;;33.70;16.03;;;;;;;;;;4993955;28;20593;-71
2023/03/05 07:17:25;;;;;;;35.70;17.30;;;;;;;;;;4993434;28;20408;-72
2023/03/05 07:19:51;;;;;;;35.03;16.77;;;;;;;;;;4994048;28;20417;-72
2023/03/05 07:22:17;;;;;;;35.67;17.30;;;;;;;;;;4994061;28;20480;-71
2023/03/05 07:27:47;;;;;;;43.50;18.93;;;;;;;;;;4993604;28;20468;-72
2023/03/05 07:30:14;;;;;;;31.83;15.50;;;;;;;;;;4993631;28;20508;-71
2023/03/05 07:32:40;;;;;;;37.53;17.30;;;;;;;;;;4993444;28;20420;-71
2023/03/05 07:35:06;;;;;;;39.57;18.50;;;;;;;;;;4993864;28;20504;-72
2023/03/05 07:37:32;;;;;;;39.37;18.37;;;;;;;;;;4994056;28;20905;-72
2023/03/05 07:39:58;;;;;;;32.13;16.33;;;;;;;;;;4993553;28;20413;-72
2023/03/05 07:42:24;;;;;;;34.70;17.87;;;;;;;;;;4993547;28;20459;-72
2023/03/05 07:44:50;;;;;;;35.57;17.00;;;;;;;;;;4993821;28;20428;-73
2023/03/05 07:47:16;;;;;;;34.97;16.93;;;;;;;;;;4993471;28;20559;-73
2023/03/05 07:49:42;;;;;;;35.57;17.90;;;;;;;;;;4993924;28;20425;-73
2023/03/05 07:52:09;;;;;;;38.57;18.60;;;;;;;;;;4993387;28;20432;-73
2023/03/05 07:54:37;;;;;;;36.90;18.20;;;;;;;;;;4993409;28;20471;-72
2023/03/05 07:57:04;;;;;;;36.47;17.57;;;;;;;;;;4992181;28;20445;-73
2023/03/05 07:59:30;;;;;;;43.90;19.37;;;;;;;;;;4992290;28;20409;-73
2023/03/05 08:01:56;;;;;;;31.43;17.73;;;;;;;;;;4993208;28;20424;-72
2023/03/05 08:04:22;;;;;;;37.77;19.10;;;;;;;;;;4991999;28;20512;-72
2023/03/05 08:06:49;;;;;;;43.10;21.13;;;;;;;;;;4993513;28;20464;-72
2023/03/05 08:09:15;;;;;;;36.57;19.23;;;;;;;;;;4993523;28;20445;-72
2023/03/05 08:11:41;;;;;;;37.30;18.70;;;;;;;;;;4993293;28;20436;-72
2023/03/05 08:14:07;;;;;;;38.03;19.70;;;;;;;;;;4993506;28;20897;-73
2023/03/05 08:16:33;;;;;;;32.30;17.73;;;;;;;;;;4993410;28;20958;-72
2023/03/05 08:18:59;;;;;;;33.20;18.20;;;;;;;;;;4993182;28;20944;-72
2023/03/05 08:21:28;;;;;;;33.77;17.20;;;;;;;;;;4993483;28;20452;-72
2023/03/05 08:23:54;;;;;;;31.83;17.57;;;;;;;;;;4991976;28;20441;-74
2023/03/05 08:26:22;;;;;;;35.37;16.47;;;;;;;;;;4993146;28;20409;-72
2023/03/05 08:28:48;;;;;;;39.00;19.43;;;;;;;;;;4994083;28;20484;-73
2023/03/05 08:31:15;;;;;;;41.80;19.47;;;;;;;;;;4995378;28;20423;-72
2023/03/05 08:33:41;;;;;;;40.13;19.90;;;;;;;;;;4997046;28;20429;-71
2023/03/05 08:36:07;;;;;;;40.10;17.93;;;;;;;;;;4996958;28;20814;-72
2023/03/05 08:38:34;;;;;;;40.60;18.00;;;;;;;;;;4996567;28;20426;-73
2023/03/05 08:41:00;;;;;;;36.40;19.03;;;;;;;;;;4995283;28;20429;-73
2023/03/05 08:43:26;;;;;;;29.13;17.07;;;;;;;;;;4996494;28;21001;-73
2023/03/05 08:45:55;;;;;;;38.73;19.07;;;;;;;;;;4996392;28;20968;-72
2023/03/05 08:48:21;;;;;;;38.63;17.63;;;;;;;;;;4996426;28;20480;-72
2023/03/05 08:50:47;;;;;;;35.57;19.00;;;;;;;;;;4996548;28;20452;-72
2023/03/05 08:53:14;;;;;;;36.47;17.00;;;;;;;;;;4996449;28;20428;-73
2023/03/05 08:55:40;;;;;;;35.73;19.00;;;;;;;;;;4996155;28;21036;-68
2023/03/05 08:58:08;;;;;;;39.03;20.47;;;;;;;;;;4996449;28;20482;-72
2023/03/05 09:00:34;;;;;;;33.47;16.87;;;;;;;;;;4994718;28;20429;-72
2023/03/05 09:03:00;;;;;;;37.83;20.67;;;;;;;;;;4996255;28;20424;-72
2023/03/05 09:05:26;;;;;;;42.30;21.43;;;;;;;;;;4995998;28;20425;-73
2023/03/05 09:07:52;;;;;;;58.63;27.20;;;;;;;;;;4996188;28;20530;-72
2023/03/05 09:10:18;;;;;;;45.63;21.60;;;;;;;;;;4996200;28;20425;-73
2023/03/05 09:12:44;;;;;;;43.27;20.57;;;;;;;;;;4994802;28;20417;-72
2023/03/05 09:15:10;;;;;;;35.60;19.00;;;;;;;;;;4995895;28;20563;-72
2023/03/05 09:17:37;;;;;;;39.57;18.40;;;;;;;;;;4994859;28;21004;-72
2023/03/05 09:20:04;;;;;;;50.90;20.60;;;;;;;;;;4996312;28;20437;-72
2023/03/05 09:22:31;;;;;;;43.00;19.73;;;;;;;;;;4995703;28;20420;-72
2023/03/05 09:24:57;;;;;;;33.87;18.40;;;;;;;;;;4994169;28;20552;-72
2023/03/05 09:27:23;;;;;;;39.00;18.73;;;;;;;;;;4995825;28;20551;-72
2023/03/05 09:29:49;;;;;;;32.53;16.80;;;;;;;;;;4995676;28;20437;-72
2023/03/05 09:32:15;;;;;;;33.03;17.30;;;;;;;;;;4994166;28;20522;-73
2023/03/05 09:34:41;;;;;;;34.20;17.70;;;;;;;;;;4995668;28;20488;-72
2023/03/05 09:37:07;;;;;;;30.93;17.40;;;;;;;;;;4995354;28;20877;-72
2023/03/05 09:39:33;;;;;;;53.07;26.47;;;;;;;;;;4995359;28;20491;-72
2023/03/05 09:42:17;;;;;;;41.10;19.03;;;;;;;;;;4995453;28;20425;-72
2023/03/05 09:44:46;;;;;;;35.60;17.70;;;;;;;;;;4993726;28;20421;-72
2023/03/05 09:47:15;;;;;;;35.90;18.80;;;;;;;;;;4995454;28;20461;-75
2023/03/05 09:49:44;;;;;;;34.00;19.70;;;;;;;;;;4994909;28;20890;-73
2023/03/05 09:52:17;;;;;;;44.63;17.53;;;;;;;;;;4995158;28;20429;-72
2023/03/05 09:54:45;;;;;;;41.87;19.47;;;;;;;;;;4994794;28;20457;-71
2023/03/05 09:57:19;;;;;;;34.97;17.77;;;;;;;;;;4995180;28;20434;-73
2023/03/05 09:59:47;;;;;;;31.03;15.37;;;;;;;;;;4995002;28;20857;-72
2023/03/05 10:02:27;;;;;;;36.00;18.30;;;;;;;;;;4995142;28;20414;-73
2023/03/05 10:04:56;;;;;;;37.90;16.97;;;;;;;;;;4994997;28;20483;-72
2023/03/05 10:07:22;;;;;;;29.43;15.53;;;;;;;;;;4994962;28;20472;-71
2023/03/05 10:09:59;;;;;;;35.17;15.70;;;;;;;;;;4994809;28;20752;-73
2023/03/05 10:12:26;;;;;;;24.70;14.93;;;;;;;;;;4994802;28;20389;-72
2023/03/05 10:14:52;;;;;;;24.97;14.67;;;;;;;;;;4994741;28;20424;-72
2023/03/05 10:17:28;;;;;;;31.70;16.50;;;;;;;;;;4994831;28;20413;-73
2023/03/05 10:20:03;;;;;;;30.17;16.67;;;;;;;;;;4994915;28;20416;-74
2023/03/05 10:22:31;;;;;;;29.43;16.00;;;;;;;;;;4993331;28;20559;-72
2023/03/05 10:25:24;;;;;;;34.70;17.20;;;;;;;;;;4994660;28;20440;-72
2023/03/05 10:27:54;;;;;;;27.60;14.23;;;;;;;;;;4994738;28;20867;-72
2023/03/05 10:30:23;;;;;;;32.20;15.97;;;;;;;;;;4993469;28;20429;-72
2023/03/05 10:32:55;;;;;;;36.10;16.73;;;;;;;;;;4994580;28;20441;-72
2023/03/05 10:35:30;;;;;;;41.43;15.53;;;;;;;;;;4994494;28;20461;-73
2023/03/05 10:38:22;;;;;;;30.40;15.73;;;;;;;;;;4994592;28;20421;-73
2023/03/05 10:40:51;;;;;;;27.43;14.00;;;;;;;;;;4994577;28;20401;-72
2023/03/05 10:43:22;;;;;;;30.73;14.60;;;;;;;;;;4994036;28;20472;-73
2023/03/05 10:45:50;;;;;;;37.60;17.97;;;;;;;;;;4992934;28;20416;-72
2023/03/05 10:48:35;;;;;;;32.50;17.60;;;;;;;;;;4993097;28;20520;-73
2023/03/05 10:51:12;;;;;;;32.63;15.50;;;;;;;;;;4994083;28;20417;-73
2023/03/05 10:53:45;;;;;;;25.83;14.73;;;;;;;;;;4994122;28;20463;-73
2023/03/05 10:56:11;;;;;;;29.57;14.40;;;;;;;;;;4993996;28;20437;-72
2023/03/05 10:58:37;;;;;;;30.33;14.90;;;;;;;;;;4993944;28;20417;-62
2023/03/05 11:01:06;;;;;;;29.90;14.73;;;;;;;;;;4994622;28;20599;-73
2023/03/05 11:03:51;;;;;;;27.50;14.07;;;;;;;;;;4993862;28;20413;-72
2023/03/05 11:06:26;;;;;;;28.93;13.63;;;;;;;;;;4993808;28;20459;-74
2023/03/05 11:08:52;;;;;;;29.80;14.97;;;;;;;;;;4992108;28;20560;-73
2023/03/05 11:11:19;;;;;;;26.43;14.80;;;;;;;;;;4993009;28;20423;-73
2023/03/05 11:13:54;;;;;;;33.10;15.60;;;;;;;;;;4993717;28;20429;-74
2023/03/05 11:16:28;;;;;;;33.20;14.20;;;;;;;;;;4994478;28;20513;-75
2023/03/05 11:19:12;;;;;;;31.33;16.50;;;;;;;;;;4994014;28;20421;-72
2023/03/05 11:21:38;;;;;;;23.60;14.93;;;;;;;;;;4993706;28;20862;-74
2023/03/05 11:24:05;;;;;;;27.30;13.07;;;;;;;;;;4992393;28;20425;-72
2023/03/05 11:26:31;;;;;;;29.53;15.07;;;;;;;;;;4994016;28;20417;-72
2023/03/05 11:28:59;;;;;;;28.77;14.60;;;;;;;;;;4993601;28;20479;-71
2023/03/05 11:31:26;;;;;;;30.27;15.97;;;;;;;;;;4993652;28;20487;-72
2023/03/05 11:34:00;;;;;;;28.87;15.40;;;;;;;;;;4993828;28;20487;-74
2023/03/05 11:36:30;;;;;;;28.83;15.97;;;;;;;;;;4993463;28;20428;-74
2023/03/05 11:39:09;;;;;;;30.57;14.53;;;;;;;;;;4994105;28;20414;-74
2023/03/05 11:41:41;;;;;;;20.00;12.07;;;;;;;;;;4993559;28;20405;-77
2023/03/05 11:44:14;;;;;;;25.37;12.77;;;;;;;;;;4993157;28;20523;-76
2023/03/05 11:46:46;;;;;;;23.03;12.90;;;;;;;;;;4993457;28;20833;-75
2023/03/05 11:49:14;;;;;;;23.10;11.10;;;;;;;;;;4993533;28;20425;-77
2023/03/05 11:51:43;;;;;;;22.27;12.27;;;;;;;;;;4993674;28;20413;-76
2023/03/05 11:54:13;;;;;;;22.73;10.90;;;;;;;;;;4976193;28;20429;-77
2023/03/05 11:56:41;;;;;;;21.77;10.37;;;;;;;;;;4992154;28;20421;-76
2023/03/05 11:59:13;;;;;;;28.03;11.77;;;;;;;;;;4993473;28;20493;-76
2023/03/05 12:01:58;;;;;;;23.70;11.63;;;;;;;;;;4992657;28;20467;-76
2023/03/05 12:04:24;;;;;;;22.27;11.40;;;;;;;;;;4996789;28;20401;-78
2023/03/05 12:06:51;;;;;;;16.47;10.57;;;;;;;;;;4997118;28;20424;-76
2023/03/05 12:09:27;;;;;;;20.87;10.10;;;;;;;;;;4997301;28;20512;-75
2023/03/05 12:11:57;;;;;;;19.00;11.60;;;;;;;;;;4997407;28;20409;-77
2023/03/05 12:14:28;;;;;;;17.00;9.90;;;;;;;;;;4997448;28;20778;-75
2023/03/05 12:17:12;;;;;;;24.17;11.00;;;;;;;;;;4996994;28;20413;-77
2023/03/05 12:19:47;;;;;;;20.40;10.70;;;;;;;;;;4997130;28;20577;-76
2023/03/05 12:22:16;;;;;;;20.87;10.30;;;;;;;;;;4996821;28;20412;-76
2023/03/05 12:24:42;;;;;;;24.50;10.67;;;;;;;;;;4995387;28;20440;-76
2023/03/05 12:27:10;;;;;;;32.13;16.67;;;;;;;;;;4996753;28;20457;-76
2023/03/05 12:29:50;;;;;;;22.83;12.27;;;;;;;;;;4995758;28;20439;-75
2023/03/05 12:32:21;;;;;;;19.90;11.23;;;;;;;;;;4996872;28;20413;-77
2023/03/05 12:35:07;;;;;;;18.67;10.87;;;;;;;;;;4997006;28;20417;-76
2023/03/05 12:37:33;;;;;;;24.50;12.90;;;;;;;;;;4996698;28;20964;-76
2023/03/05 12:40:03;;;;;;;22.30;11.70;;;;;;;;;;4996275;28;20425;-74
2023/03/05 12:42:29;;;;;;;19.00;11.40;;;;;;;;;;4996617;28;20456;-73
2023/03/05 12:45:15;;;;;;;22.57;11.73;;;;;;;;;;4996667;28;20783;-73
2023/03/05 12:47:43;;;;;;;17.20;10.10;;;;;;;;;;4996939;28;20480;-73
2023/03/05 12:50:27;;;;;;;20.07;11.10;;;;;;;;;;4996667;28;20432;-74
2023/03/05 12:52:54;;;;;;;15.87;9.70;;;;;;;;;;4996533;28;20444;-73
2023/03/05 12:55:32;;;;;;;12.37;9.77;;;;;;;;;;4996572;28;20417;-73
2023/03/05 12:58:11;;;;;;;15.03;8.10;;;;;;;;;;4996472;28;20465;-72
2023/03/05 13:00:42;;;;;;;12.13;8.97;;;;;;;;;;4994769;28;20409;-72
2023/03/05 13:03:10;;;;;;;15.10;10.70;;;;;;;;;;4994764;28;20424;-72
2023/03/05 13:05:37;;;;;;;16.23;9.63;;;;;;;;;;4996359;28;20425;-72
2023/03/05 13:08:10;;;;;;;11.33;8.83;;;;;;;;;;4994775;28;20472;-72
2023/03/05 13:10:36;;;;;;;18.33;10.97;;;;;;;;;;4994661;28;20429;-72
2023/03/05 13:13:02;;;;;;;13.70;9.20;;;;;;;;;;4996274;28;20425;-72
2023/03/05 13:15:28;;;;;;;11.33;7.80;;;;;;;;;;4993864;28;20524;-73
2023/03/05 13:18:07;;;;;;;17.17;10.50;;;;;;;;;;4996095;28;20429;-72
2023/03/05 13:20:37;;;;;;;17.43;9.87;;;;;;;;;;4996028;28;20437;-72
2023/03/05 13:23:03;;;;;;;17.23;11.40;;;;;;;;;;4996176;28;20413;-71
2023/03/05 13:25:29;;;;;;;17.00;10.30;;;;;;;;;;4995603;28;20417;-71
2023/03/05 13:28:03;;;;;;;13.00;8.90;;;;;;;;;;4995962;28;20839;-73
2023/03/05 13:30:29;;;;;;;15.97;10.00;;;;;;;;;;4994313;28;20461;-71
2023/03/05 13:32:59;;;;;;;14.00;10.00;;;;;;;;;;4995725;28;20472;-75
2023/03/05 13:35:25;;;;;;;14.77;10.43;;;;;;;;;;4996400;28;20409;-71
2023/03/05 13:37:51;;;;;;;14.43;9.23;;;;;;;;;;4995911;28;20429;-71
2023/03/05 13:40:17;;;;;;;14.03;9.67;;;;;;;;;;4995459;28;20418;-72
2023/03/05 13:42:43;;;;;;;19.83;10.57;;;;;;;;;;4995009;28;20472;-72
2023/03/05 13:45:24;;;;;;;18.13;10.93;;;;;;;;;;4995128;28;20923;-71
2023/03/05 13:48:01;;;;;;;20.47;10.97;;;;;;;;;;4995040;28;20457;-72
2023/03/05 13:50:29;;;;;;;23.27;12.63;;;;;;;;;;4995052;28;20472;-72
2023/03/05 13:52:55;;;;;;;27.70;14.80;;;;;;;;;;4995219;28;20893;-71
2023/03/05 13:55:21;;;;;;;23.37;11.30;;;;;;;;;;4995396;28;20428;-72
2023/03/05 13:57:49;;;;;;;18.57;11.07;;;;;;;;;;4995977;28;20406;-71
2023/03/05 14:00:29;;;;;;;17.87;9.67;;;;;;;;;;4995112;28;20470;-71
2023/03/05 14:02:56;;;;;;;16.50;10.93;;;;;;;;;;4994095;28;20417;-72
2023/03/05 14:05:22;;;;;;;24.40;11.07;;;;;;;;;;4993572;28;20421;-71
2023/03/05 14:07:50;;;;;;;27.47;12.97;;;;;;;;;;4994686;28;20973;-71
2023/03/05 14:10:34;;;;;;;22.57;10.73;;;;;;;;;;4995055;28;20424;-71
2023/03/05 14:13:02;;;;;;;20.03;11.10;;;;;;;;;;4994836;28;20448;-71
2023/03/05 14:15:30;;;;;;;21.87;12.17;;;;;;;;;;4993461;28;20417;-71
2023/03/05 14:18:08;;;;;;;15.87;9.33;;;;;;;;;;4994944;28;20421;-72
2023/03/05 14:20:34;;;;;;;18.00;8.80;;;;;;;;;;4994748;28;20425;-72
2023/03/05 14:23:00;;;;;;;15.30;9.70;;;;;;;;;;4995084;28;20418;-72
2023/03/05 14:25:36;;;;;;;14.47;9.33;;;;;;;;;;4994735;28;20436;-72